West Milton, Pennsylvania
Current Conditions -  °F | °C
As of 10:53 AM on Thursday 30 Oct 2014 (Local Time) from KSEG Reporting Station
Scattered Clouds Scattered Clouds  
Wind Chill: 52°   Ceiling: Unl
Heat Index: 52°   Visibility: 10mi
Dew Point: 39°   Wind: 6mph
Humidity: 61%   Direction: 350°N
Pressure: 30.06"   Gusts: NA
Location:  41.02°N, 76.87°W
Report Text: KSEG 301453Z AUTO 35005KT 10SM SCT033 11/04 A3006 RMK AO2 SLP179 T01110039 50006
Loading
Personal Weather Stations






























Interactive Weather Map
Tropical Storm Tracking
New forecast layout! Learn more

10-Day Weather Forecast

Advertisements
Track Severe Weather on mobile